sensor_id;sensor_type;location;lat;lon;timestamp;temperature;humidity
14884;DHT22;7534;50.762;7.000;2022-10-17T00:02:00;15.90;99.90
14884;DHT22;7534;50.762;7.000;2022-10-17T00:04:25;15.90;99.90
14884;DHT22;7534;50.762;7.000;2022-10-17T00:06:52;15.90;99.90
14884;DHT22;7534;50.762;7.000;2022-10-17T00:09:18;15.90;99.90
14884;DHT22;7534;50.762;7.000;2022-10-17T00:11:43;15.80;99.90
14884;DHT22;7534;50.762;7.000;2022-10-17T00:14:09;15.80;99.90
14884;DHT22;7534;50.762;7.000;2022-10-17T00:16:35;15.80;99.90
14884;DHT22;7534;50.762;7.000;2022-10-17T00:19:04;15.80;99.90
14884;DHT22;7534;50.762;7.000;2022-10-17T00:21:31;15.70;99.90
14884;DHT22;7534;50.762;7.000;2022-10-17T00:23:58;15.70;99.90
14884;DHT22;7534;50.762;7.000;2022-10-17T00:26:25;15.60;99.90
14884;DHT22;7534;50.762;7.000;2022-10-17T00:28:54;15.70;99.90
14884;DHT22;7534;50.762;7.000;2022-10-17T00:31:21;15.70;99.90
14884;DHT22;7534;50.762;7.000;2022-10-17T00:33:47;15.70;99.90
14884;DHT22;7534;50.762;7.000;2022-10-17T00:36:22;15.70;99.90
14884;DHT22;7534;50.762;7.000;2022-10-17T00:38:53;15.70;99.90
14884;DHT22;7534;50.762;7.000;2022-10-17T00:41:24;15.80;99.90
14884;DHT22;7534;50.762;7.000;2022-10-17T00:43:59;15.80;99.90
14884;DHT22;7534;50.762;7.000;2022-10-17T00:46:37;15.70;99.90
14884;DHT22;7534;50.762;7.000;2022-10-17T00:49:07;15.70;99.90
14884;DHT22;7534;50.762;7.000;2022-10-17T00:51:48;15.60;99.90
14884;DHT22;7534;50.762;7.000;2022-10-17T00:54:20;15.70;99.90
14884;DHT22;7534;50.762;7.000;2022-10-17T00:56:50;15.80;99.90
14884;DHT22;7534;50.762;7.000;2022-10-17T00:59:19;15.80;99.90
14884;DHT22;7534;50.762;7.000;2022-10-17T01:02:02;15.80;99.90
14884;DHT22;7534;50.762;7.000;2022-10-17T01:04:31;15.80;99.90
14884;DHT22;7534;50.762;7.000;2022-10-17T01:06:57;15.70;99.90
14884;DHT22;7534;50.762;7.000;2022-10-17T01:09:24;15.70;99.90
14884;DHT22;7534;50.762;7.000;2022-10-17T01:12:15;15.80;99.90
14884;DHT22;7534;50.762;7.000;2022-10-17T01:15:02;15.80;99.90
14884;DHT22;7534;50.762;7.000;2022-10-17T01:20:59;15.90;99.90
14884;DHT22;7534;50.762;7.000;2022-10-17T01:27:12;16.20;99.90
14884;DHT22;7534;50.762;7.000;2022-10-17T01:30:25;16.20;99.90
14884;DHT22;7534;50.762;7.000;2022-10-17T01:33:15;16.40;99.90
14884;DHT22;7534;50.762;7.000;2022-10-17T01:39:14;16.50;99.90
14884;DHT22;7534;50.762;7.000;2022-10-17T01:41:58;16.60;99.90
14884;DHT22;7534;50.762;7.000;2022-10-17T01:44:59;16.70;99.90
14884;DHT22;7534;50.762;7.000;2022-10-17T01:47:32;16.70;99.90
14884;DHT22;7534;50.762;7.000;2022-10-17T01:50:06;16.80;99.90
14884;DHT22;7534;50.762;7.000;2022-10-17T01:52:44;16.90;99.90
14884;DHT22;7534;50.762;7.000;2022-10-17T01:55:36;17.00;99.90
14884;DHT22;7534;50.762;7.000;2022-10-17T02:00:58;17.20;99.90
14884;DHT22;7534;50.762;7.000;2022-10-17T02:03:27;17.30;99.90
14884;DHT22;7534;50.762;7.000;2022-10-17T02:05:55;17.50;99.90
14884;DHT22;7534;50.762;7.000;2022-10-17T02:08:30;17.40;99.90
14884;DHT22;7534;50.762;7.000;2022-10-17T02:11:14;17.60;99.90
14884;DHT22;7534;50.762;7.000;2022-10-17T02:14:12;17.60;99.90
14884;DHT22;7534;50.762;7.000;2022-10-17T02:17:04;17.60;99.90
14884;DHT22;7534;50.762;7.000;2022-10-17T02:20:00;17.70;99.90
14884;DHT22;7534;50.762;7.000;2022-10-17T02:25:34;17.70;99.90
14884;DHT22;7534;50.762;7.000;2022-10-17T02:30:53;17.70;99.90
14884;DHT22;7534;50.762;7.000;2022-10-17T02:33:33;17.70;99.90
14884;DHT22;7534;50.762;7.000;2022-10-17T02:36:11;17.70;99.90
14884;DHT22;7534;50.762;7.000;2022-10-17T02:38:42;17.60;99.90
14884;DHT22;7534;50.762;7.000;2022-10-17T02:41:12;17.60;99.90
14884;DHT22;7534;50.762;7.000;2022-10-17T02:43:42;17.60;99.90
14884;DHT22;7534;50.762;7.000;2022-10-17T02:46:13;17.60;99.90
14884;DHT22;7534;50.762;7.000;2022-10-17T02:48:51;17.60;99.90
14884;DHT22;7534;50.762;7.000;2022-10-17T02:54:26;17.60;99.90
14884;DHT22;7534;50.762;7.000;2022-10-17T02:57:45;17.60;99.90
14884;DHT22;7534;50.762;7.000;2022-10-17T03:00:05;17.50;99.90
14884;DHT22;7534;50.762;7.000;2022-10-17T03:03:01;17.40;99.90
14884;DHT22;7534;50.762;7.000;2022-10-17T03:05:43;17.40;99.90
14884;DHT22;7534;50.762;7.000;2022-10-17T03:08:08;17.40;99.90
14884;DHT22;7534;50.762;7.000;2022-10-17T03:10:35;17.40;99.90
14884;DHT22;7534;50.762;7.000;2022-10-17T03:13:01;17.40;99.90
14884;DHT22;7534;50.762;7.000;2022-10-17T03:15:27;17.40;99.90
14884;DHT22;7534;50.762;7.000;2022-10-17T03:17:53;17.40;99.90
14884;DHT22;7534;50.762;7.000;2022-10-17T03:20:19;17.30;99.90
14884;DHT22;7534;50.762;7.000;2022-10-17T03:22:45;17.40;99.90
14884;DHT22;7534;50.762;7.000;2022-10-17T03:25:11;17.40;99.90
14884;DHT22;7534;50.762;7.000;2022-10-17T03:27:36;17.40;99.90
14884;DHT22;7534;50.762;7.000;2022-10-17T03:30:02;17.40;99.90
14884;DHT22;7534;50.762;7.000;2022-10-17T03:32:28;17.40;99.90
14884;DHT22;7534;50.762;7.000;2022-10-17T03:34:54;17.40;99.90
14884;DHT22;7534;50.762;7.000;2022-10-17T03:37:19;17.40;99.90
14884;DHT22;7534;50.762;7.000;2022-10-17T03:39:45;17.30;99.90
14884;DHT22;7534;50.762;7.000;2022-10-17T03:42:12;17.30;99.90
14884;DHT22;7534;50.762;7.000;2022-10-17T03:44:37;17.30;99.90
14884;DHT22;7534;50.762;7.000;2022-10-17T03:47:03;17.30;99.90
14884;DHT22;7534;50.762;7.000;2022-10-17T03:49:29;17.30;99.90
14884;DHT22;7534;50.762;7.000;2022-10-17T03:51:54;17.20;99.90
14884;DHT22;7534;50.762;7.000;2022-10-17T03:54:20;17.20;99.90
14884;DHT22;7534;50.762;7.000;2022-10-17T03:56:46;17.20;99.90
14884;DHT22;7534;50.762;7.000;2022-10-17T03:59:13;17.20;99.90
14884;DHT22;7534;50.762;7.000;2022-10-17T04:01:39;17.10;99.90
14884;DHT22;7534;50.762;7.000;2022-10-17T04:04:05;17.10;99.90
14884;DHT22;7534;50.762;7.000;2022-10-17T04:06:31;17.10;99.90
14884;DHT22;7534;50.762;7.000;2022-10-17T04:08:57;17.00;99.90
14884;DHT22;7534;50.762;7.000;2022-10-17T04:11:23;17.00;99.90
14884;DHT22;7534;50.762;7.000;2022-10-17T04:13:54;17.00;99.90
14884;DHT22;7534;50.762;7.000;2022-10-17T04:16:22;16.90;99.90
14884;DHT22;7534;50.762;7.000;2022-10-17T04:18:52;16.90;99.90
14884;DHT22;7534;50.762;7.000;2022-10-17T04:21:20;17.00;99.90
14884;DHT22;7534;50.762;7.000;2022-10-17T04:23:46;17.00;99.90
14884;DHT22;7534;50.762;7.000;2022-10-17T04:26:12;16.90;99.90
14884;DHT22;7534;50.762;7.000;2022-10-17T04:28:37;16.90;99.90
14884;DHT22;7534;50.762;7.000;2022-10-17T04:31:10;16.90;99.90
14884;DHT22;7534;50.762;7.000;2022-10-17T04:33:37;16.80;99.90
14884;DHT22;7534;50.762;7.000;2022-10-17T04:36:06;16.80;99.90
14884;DHT22;7534;50.762;7.000;2022-10-17T04:38:34;16.80;99.90
14884;DHT22;7534;50.762;7.000;2022-10-17T04:41:01;16.90;99.90
14884;DHT22;7534;50.762;7.000;2022-10-17T04:43:29;16.80;99.90
14884;DHT22;7534;50.762;7.000;2022-10-17T04:45:57;16.80;99.90
14884;DHT22;7534;50.762;7.000;2022-10-17T04:48:23;16.70;99.90
14884;DHT22;7534;50.762;7.000;2022-10-17T04:50:57;16.70;99.90
14884;DHT22;7534;50.762;7.000;2022-10-17T04:53:24;16.70;99.90
14884;DHT22;7534;50.762;7.000;2022-10-17T04:55:51;16.70;99.90
14884;DHT22;7534;50.762;7.000;2022-10-17T04:58:18;16.70;99.90
14884;DHT22;7534;50.762;7.000;2022-10-17T05:00:45;16.60;99.90
14884;DHT22;7534;50.762;7.000;2022-10-17T05:03:11;16.60;99.90
14884;DHT22;7534;50.762;7.000;2022-10-17T05:05:37;16.70;99.90
14884;DHT22;7534;50.762;7.000;2022-10-17T05:08:05;16.60;99.90
14884;DHT22;7534;50.762;7.000;2022-10-17T05:10:42;16.60;99.90
14884;DHT22;7534;50.762;7.000;2022-10-17T05:13:10;16.50;99.90
14884;DHT22;7534;50.762;7.000;2022-10-17T05:15:37;16.40;99.90
14884;DHT22;7534;50.762;7.000;2022-10-17T05:18:04;16.40;99.90
14884;DHT22;7534;50.762;7.000;2022-10-17T05:20:30;16.30;99.90
14884;DHT22;7534;50.762;7.000;2022-10-17T05:23:00;16.20;99.90
14884;DHT22;7534;50.762;7.000;2022-10-17T05:25:27;16.20;99.90
14884;DHT22;7534;50.762;7.000;2022-10-17T05:27:53;16.30;99.90
14884;DHT22;7534;50.762;7.000;2022-10-17T05:30:18;16.50;99.90
14884;DHT22;7534;50.762;7.000;2022-10-17T05:32:44;16.20;99.90
14884;DHT22;7534;50.762;7.000;2022-10-17T05:35:10;16.00;99.90
14884;DHT22;7534;50.762;7.000;2022-10-17T05:37:35;16.00;99.90
14884;DHT22;7534;50.762;7.000;2022-10-17T05:40:03;16.00;99.90
14884;DHT22;7534;50.762;7.000;2022-10-17T05:42:29;16.20;99.90
14884;DHT22;7534;50.762;7.000;2022-10-17T05:44:54;16.30;99.90
14884;DHT22;7534;50.762;7.000;2022-10-17T05:47:20;16.30;99.90
14884;DHT22;7534;50.762;7.000;2022-10-17T05:49:46;16.30;99.90
14884;DHT22;7534;50.762;7.000;2022-10-17T05:52:11;16.30;99.90
14884;DHT22;7534;50.762;7.000;2022-10-17T05:54:37;16.20;99.90
14884;DHT22;7534;50.762;7.000;2022-10-17T05:57:03;16.10;99.90
14884;DHT22;7534;50.762;7.000;2022-10-17T05:59:28;16.10;99.90
14884;DHT22;7534;50.762;7.000;2022-10-17T06:01:54;16.10;99.90
14884;DHT22;7534;50.762;7.000;2022-10-17T06:04:20;16.00;99.90
14884;DHT22;7534;50.762;7.000;2022-10-17T06:06:46;16.00;99.90
14884;DHT22;7534;50.762;7.000;2022-10-17T06:09:11;16.00;99.90
14884;DHT22;7534;50.762;7.000;2022-10-17T06:11:37;16.00;99.90
14884;DHT22;7534;50.762;7.000;2022-10-17T06:14:03;16.00;99.90
14884;DHT22;7534;50.762;7.000;2022-10-17T06:16:28;16.00;99.90
14884;DHT22;7534;50.762;7.000;2022-10-17T06:18:54;16.00;99.90
14884;DHT22;7534;50.762;7.000;2022-10-17T06:21:23;16.30;99.90
14884;DHT22;7534;50.762;7.000;2022-10-17T06:23:51;16.30;99.90
14884;DHT22;7534;50.762;7.000;2022-10-17T06:26:18;16.40;99.90
14884;DHT22;7534;50.762;7.000;2022-10-17T06:28:44;16.40;99.90
14884;DHT22;7534;50.762;7.000;2022-10-17T06:31:13;16.60;99.90
14884;DHT22;7534;50.762;7.000;2022-10-17T06:33:40;16.80;99.90
14884;DHT22;7534;50.762;7.000;2022-10-17T06:36:07;16.80;99.90
14884;DHT22;7534;50.762;7.000;2022-10-17T06:38:36;16.90;99.90
14884;DHT22;7534;50.762;7.000;2022-10-17T06:41:15;17.00;99.90
14884;DHT22;7534;50.762;7.000;2022-10-17T06:43:44;17.20;99.90
14884;DHT22;7534;50.762;7.000;2022-10-17T06:46:15;17.40;99.90
14884;DHT22;7534;50.762;7.000;2022-10-17T06:48:42;17.20;99.90
14884;DHT22;7534;50.762;7.000;2022-10-17T06:51:08;17.30;99.90
14884;DHT22;7534;50.762;7.000;2022-10-17T06:53:37;17.40;99.90
14884;DHT22;7534;50.762;7.000;2022-10-17T06:56:05;17.50;99.90
14884;DHT22;7534;50.762;7.000;2022-10-17T06:58:34;17.40;99.90
14884;DHT22;7534;50.762;7.000;2022-10-17T07:01:09;17.50;99.90
14884;DHT22;7534;50.762;7.000;2022-10-17T07:03:38;17.80;99.90
14884;DHT22;7534;50.762;7.000;2022-10-17T07:06:04;18.00;99.90
14884;DHT22;7534;50.762;7.000;2022-10-17T07:08:30;18.60;99.90
14884;DHT22;7534;50.762;7.000;2022-10-17T07:10:56;19.20;99.90
14884;DHT22;7534;50.762;7.000;2022-10-17T07:13:23;19.90;99.90
14884;DHT22;7534;50.762;7.000;2022-10-17T07:25:42;21.20;99.90
14884;DHT22;7534;50.762;7.000;2022-10-17T07:28:08;21.10;99.90
14884;DHT22;7534;50.762;7.000;2022-10-17T07:30:34;20.90;99.90
14884;DHT22;7534;50.762;7.000;2022-10-17T07:32:59;20.60;99.90
14884;DHT22;7534;50.762;7.000;2022-10-17T07:35:25;20.40;99.90
14884;DHT22;7534;50.762;7.000;2022-10-17T07:37:51;20.30;99.90
14884;DHT22;7534;50.762;7.000;2022-10-17T07:40:16;20.30;99.90
14884;DHT22;7534;50.762;7.000;2022-10-17T07:42:42;20.50;99.90
14884;DHT22;7534;50.762;7.000;2022-10-17T07:45:08;20.70;99.90
14884;DHT22;7534;50.762;7.000;2022-10-17T07:52:30;22.60;99.90
14884;DHT22;7534;50.762;7.000;2022-10-17T07:54:56;22.80;99.90
14884;DHT22;7534;50.762;7.000;2022-10-17T07:57:21;23.00;99.90
14884;DHT22;7534;50.762;7.000;2022-10-17T07:59:47;23.40;99.90
14884;DHT22;7534;50.762;7.000;2022-10-17T08:02:21;23.40;99.90
14884;DHT22;7534;50.762;7.000;2022-10-17T08:04:51;23.80;99.90
14884;DHT22;7534;50.762;7.000;2022-10-17T08:07:17;23.50;95.50
14884;DHT22;7534;50.762;7.000;2022-10-17T08:09:44;23.30;95.30
14884;DHT22;7534;50.762;7.000;2022-10-17T08:12:11;22.90;95.80
14884;DHT22;7534;50.762;7.000;2022-10-17T08:14:39;23.20;95.80
14884;DHT22;7534;50.762;7.000;2022-10-17T08:17:05;23.30;95.50
14884;DHT22;7534;50.762;7.000;2022-10-17T08:19:31;23.10;95.50
14884;DHT22;7534;50.762;7.000;2022-10-17T08:21:57;23.10;95.50
14884;DHT22;7534;50.762;7.000;2022-10-17T08:24:24;23.00;95.70
14884;DHT22;7534;50.762;7.000;2022-10-17T08:26:50;22.70;96.00
14884;DHT22;7534;50.762;7.000;2022-10-17T08:29:18;22.50;96.30
14884;DHT22;7534;50.762;7.000;2022-10-17T08:31:44;22.50;96.80
14884;DHT22;7534;50.762;7.000;2022-10-17T08:34:10;22.60;96.70
14884;DHT22;7534;50.762;7.000;2022-10-17T08:39:02;22.30;97.20
14884;DHT22;7534;50.762;7.000;2022-10-17T08:41:43;22.40;97.30
14884;DHT22;7534;50.762;7.000;2022-10-17T08:48:03;22.70;96.70
14884;DHT22;7534;50.762;7.000;2022-10-17T08:51:09;22.90;96.50
14884;DHT22;7534;50.762;7.000;2022-10-17T08:53:42;22.90;96.30
14884;DHT22;7534;50.762;7.000;2022-10-17T08:56:29;22.60;96.60
14884;DHT22;7534;50.762;7.000;2022-10-17T08:59:00;22.30;97.10
14884;DHT22;7534;50.762;7.000;2022-10-17T09:02:54;21.90;97.90
14884;DHT22;7534;50.762;7.000;2022-10-17T09:08:29;21.80;98.60
14884;DHT22;7534;50.762;7.000;2022-10-17T09:11:16;22.10;98.20
14884;DHT22;7534;50.762;7.000;2022-10-17T09:16:42;22.50;97.60
14884;DHT22;7534;50.762;7.000;2022-10-17T09:19:30;23.10;96.50
14884;DHT22;7534;50.762;7.000;2022-10-17T09:22:03;24.20;95.30
14884;DHT22;7534;50.762;7.000;2022-10-17T09:24:44;25.20;93.70
14884;DHT22;7534;50.762;7.000;2022-10-17T09:27:24;25.90;92.80
14884;DHT22;7534;50.762;7.000;2022-10-17T09:30:24;26.00;91.90
14884;DHT22;7534;50.762;7.000;2022-10-17T09:32:56;25.50;92.00
14884;DHT22;7534;50.762;7.000;2022-10-17T09:35:22;25.10;92.90
14884;DHT22;7534;50.762;7.000;2022-10-17T09:37:51;24.80;93.40
14884;DHT22;7534;50.762;7.000;2022-10-17T09:40:25;24.50;93.90
14884;DHT22;7534;50.762;7.000;2022-10-17T09:42:56;24.40;94.10
14884;DHT22;7534;50.762;7.000;2022-10-17T09:45:24;24.30;94.20
14884;DHT22;7534;50.762;7.000;2022-10-17T09:48:25;24.20;94.30
14884;DHT22;7534;50.762;7.000;2022-10-17T09:50:59;24.20;94.50
14884;DHT22;7534;50.762;7.000;2022-10-17T09:53:33;24.00;94.70
14884;DHT22;7534;50.762;7.000;2022-10-17T09:56:06;23.90;94.80
14884;DHT22;7534;50.762;7.000;2022-10-17T09:58:47;23.90;94.70
14884;DHT22;7534;50.762;7.000;2022-10-17T10:03:45;24.20;94.70
14884;DHT22;7534;50.762;7.000;2022-10-17T10:06:17;24.40;94.70
14884;DHT22;7534;50.762;7.000;2022-10-17T10:08:51;24.40;94.20
14884;DHT22;7534;50.762;7.000;2022-10-17T10:11:23;24.50;94.40
14884;DHT22;7534;50.762;7.000;2022-10-17T10:14:18;24.80;94.40
14884;DHT22;7534;50.762;7.000;2022-10-17T10:16:47;24.90;94.00
14884;DHT22;7534;50.762;7.000;2022-10-17T10:19:32;25.00;94.20
14884;DHT22;7534;50.762;7.000;2022-10-17T10:22:02;25.60;93.10
14884;DHT22;7534;50.762;7.000;2022-10-17T10:27:34;25.60;92.50
14884;DHT22;7534;50.762;7.000;2022-10-17T10:30:02;25.70;92.50
14884;DHT22;7534;50.762;7.000;2022-10-17T10:32:34;25.80;92.50
14884;DHT22;7534;50.762;7.000;2022-10-17T10:35:06;25.90;92.30
14884;DHT22;7534;50.762;7.000;2022-10-17T10:37:46;26.30;91.60
14884;DHT22;7534;50.762;7.000;2022-10-17T10:40:31;26.80;91.00
14884;DHT22;7534;50.762;7.000;2022-10-17T10:43:02;27.00;90.20
14884;DHT22;7534;50.762;7.000;2022-10-17T10:45:40;26.90;90.40
14884;DHT22;7534;50.762;7.000;2022-10-17T10:51:17;26.70;90.80
14884;DHT22;7534;50.762;7.000;2022-10-17T10:53:51;26.90;90.50
14884;DHT22;7534;50.762;7.000;2022-10-17T10:56:36;27.30;89.40
14884;DHT22;7534;50.762;7.000;2022-10-17T11:04:43;28.10;87.00
14884;DHT22;7534;50.762;7.000;2022-10-17T11:14:16;27.40;87.60
14884;DHT22;7534;50.762;7.000;2022-10-17T11:19:30;27.30;88.70
14884;DHT22;7534;50.762;7.000;2022-10-17T11:22:04;26.80;89.00
14884;DHT22;7534;50.762;7.000;2022-10-17T11:24:41;26.30;90.30
14884;DHT22;7534;50.762;7.000;2022-10-17T11:27:13;26.00;91.00
14884;DHT22;7534;50.762;7.000;2022-10-17T11:29:40;25.90;91.40
14884;DHT22;7534;50.762;7.000;2022-10-17T11:32:18;25.80;91.10
14884;DHT22;7534;50.762;7.000;2022-10-17T11:34:52;25.60;91.50
14884;DHT22;7534;50.762;7.000;2022-10-17T11:37:38;25.50;91.90
14884;DHT22;7534;50.762;7.000;2022-10-17T11:40:18;25.70;92.10
14884;DHT22;7534;50.762;7.000;2022-10-17T11:43:04;25.80;91.80
14884;DHT22;7534;50.762;7.000;2022-10-17T11:45:43;26.00;92.00
14884;DHT22;7534;50.762;7.000;2022-10-17T11:51:01;25.90;91.90
14884;DHT22;7534;50.762;7.000;2022-10-17T11:53:45;25.90;92.10
14884;DHT22;7534;50.762;7.000;2022-10-17T11:56:25;25.90;92.20
14884;DHT22;7534;50.762;7.000;2022-10-17T12:02:20;25.50;92.30
14884;DHT22;7534;50.762;7.000;2022-10-17T12:05:09;25.40;92.60
14884;DHT22;7534;50.762;7.000;2022-10-17T12:08:19;25.30;92.90
14884;DHT22;7534;50.762;7.000;2022-10-17T12:11:30;25.10;93.20
14884;DHT22;7534;50.762;7.000;2022-10-17T12:14:38;25.10;93.40
14884;DHT22;7534;50.762;7.000;2022-10-17T12:17:34;25.20;93.90
14884;DHT22;7534;50.762;7.000;2022-10-17T12:22:57;25.00;94.00
14884;DHT22;7534;50.762;7.000;2022-10-17T12:25:29;25.20;94.10
14884;DHT22;7534;50.762;7.000;2022-10-17T12:28:11;25.30;94.30
14884;DHT22;7534;50.762;7.000;2022-10-17T12:31:01;25.20;94.30
14884;DHT22;7534;50.762;7.000;2022-10-17T12:33:53;25.20;94.10
14884;DHT22;7534;50.762;7.000;2022-10-17T12:46:48;25.70;94.50
14884;DHT22;7534;50.762;7.000;2022-10-17T12:49:42;25.60;94.30
14884;DHT22;7534;50.762;7.000;2022-10-17T12:55:22;25.30;94.50
14884;DHT22;7534;50.762;7.000;2022-10-17T12:58:04;25.20;95.20
14884;DHT22;7534;50.762;7.000;2022-10-17T13:00:42;25.20;95.80
14884;DHT22;7534;50.762;7.000;2022-10-17T13:03:25;25.10;95.70
14884;DHT22;7534;50.762;7.000;2022-10-17T13:05:59;25.20;96.10
14884;DHT22;7534;50.762;7.000;2022-10-17T13:08:48;25.30;96.40
14884;DHT22;7534;50.762;7.000;2022-10-17T13:11:22;25.30;96.00
14884;DHT22;7534;50.762;7.000;2022-10-17T13:13:53;25.30;95.80
14884;DHT22;7534;50.762;7.000;2022-10-17T13:16:31;25.30;95.90
14884;DHT22;7534;50.762;7.000;2022-10-17T13:19:03;25.10;95.90
14884;DHT22;7534;50.762;7.000;2022-10-17T13:21:38;24.90;96.10
14884;DHT22;7534;50.762;7.000;2022-10-17T13:24:21;24.80;95.80
14884;DHT22;7534;50.762;7.000;2022-10-17T13:26:53;24.70;95.90
14884;DHT22;7534;50.762;7.000;2022-10-17T13:29:19;24.60;96.40
14884;DHT22;7534;50.762;7.000;2022-10-17T13:31:52;24.60;96.00
14884;DHT22;7534;50.762;7.000;2022-10-17T13:34:26;24.50;95.80
14884;DHT22;7534;50.762;7.000;2022-10-17T13:36:58;24.50;95.40
14884;DHT22;7534;50.762;7.000;2022-10-17T13:39:31;24.50;95.30
14884;DHT22;7534;50.762;7.000;2022-10-17T13:42:00;24.40;95.60
14884;DHT22;7534;50.762;7.000;2022-10-17T13:44:31;24.40;95.40
14884;DHT22;7534;50.762;7.000;2022-10-17T13:46:59;24.20;95.20
14884;DHT22;7534;50.762;7.000;2022-10-17T13:49:34;24.20;95.30
14884;DHT22;7534;50.762;7.000;2022-10-17T13:52:13;24.10;95.40
14884;DHT22;7534;50.762;7.000;2022-10-17T13:54:47;24.10;95.50
14884;DHT22;7534;50.762;7.000;2022-10-17T13:57:26;24.10;95.90
14884;DHT22;7534;50.762;7.000;2022-10-17T13:59:56;24.10;96.20
14884;DHT22;7534;50.762;7.000;2022-10-17T14:02:26;24.10;96.40
14884;DHT22;7534;50.762;7.000;2022-10-17T14:05:10;24.00;96.30
14884;DHT22;7534;50.762;7.000;2022-10-17T14:07:58;24.00;95.80
14884;DHT22;7534;50.762;7.000;2022-10-17T14:10:36;23.90;95.90
14884;DHT22;7534;50.762;7.000;2022-10-17T14:13:05;24.10;95.70
14884;DHT22;7534;50.762;7.000;2022-10-17T14:15:34;24.20;95.30
14884;DHT22;7534;50.762;7.000;2022-10-17T14:18:06;24.30;95.30
14884;DHT22;7534;50.762;7.000;2022-10-17T14:20:38;24.40;95.00
14884;DHT22;7534;50.762;7.000;2022-10-17T14:23:30;24.60;95.00
14884;DHT22;7534;50.762;7.000;2022-10-17T14:26:17;24.80;94.80
14884;DHT22;7534;50.762;7.000;2022-10-17T14:29:06;25.00;93.90
14884;DHT22;7534;50.762;7.000;2022-10-17T14:31:45;25.10;93.70
14884;DHT22;7534;50.762;7.000;2022-10-17T14:34:31;25.10;94.10
14884;DHT22;7534;50.762;7.000;2022-10-17T14:37:00;25.00;94.20
14884;DHT22;7534;50.762;7.000;2022-10-17T14:39:27;24.80;93.90
14884;DHT22;7534;50.762;7.000;2022-10-17T14:41:54;24.80;94.10
14884;DHT22;7534;50.762;7.000;2022-10-17T14:44:23;24.70;94.20
14884;DHT22;7534;50.762;7.000;2022-10-17T14:46:55;24.60;94.50
14884;DHT22;7534;50.762;7.000;2022-10-17T14:49:34;24.50;94.20
14884;DHT22;7534;50.762;7.000;2022-10-17T14:52:25;24.50;94.40
14884;DHT22;7534;50.762;7.000;2022-10-17T14:54:52;24.40;94.70
14884;DHT22;7534;50.762;7.000;2022-10-17T14:57:42;24.30;94.70
14884;DHT22;7534;50.762;7.000;2022-10-17T15:00:17;24.10;94.90
14884;DHT22;7534;50.762;7.000;2022-10-17T15:02:46;23.90;95.10
14884;DHT22;7534;50.762;7.000;2022-10-17T15:05:13;23.90;95.60
14884;DHT22;7534;50.762;7.000;2022-10-17T15:07:41;23.80;95.50
14884;DHT22;7534;50.762;7.000;2022-10-17T15:10:30;23.80;95.70
14884;DHT22;7534;50.762;7.000;2022-10-17T15:12:58;23.70;96.00
14884;DHT22;7534;50.762;7.000;2022-10-17T15:15:27;23.60;95.70
14884;DHT22;7534;50.762;7.000;2022-10-17T15:17:54;23.40;96.10
14884;DHT22;7534;50.762;7.000;2022-10-17T15:20:21;23.40;96.30
14884;DHT22;7534;50.762;7.000;2022-10-17T15:22:51;23.30;95.80
14884;DHT22;7534;50.762;7.000;2022-10-17T15:25:18;23.20;96.00
14884;DHT22;7534;50.762;7.000;2022-10-17T15:27:44;23.20;96.10
14884;DHT22;7534;50.762;7.000;2022-10-17T15:30:18;23.20;95.90
14884;DHT22;7534;50.762;7.000;2022-10-17T15:32:47;23.10;96.00
14884;DHT22;7534;50.762;7.000;2022-10-17T15:35:13;23.10;96.20
14884;DHT22;7534;50.762;7.000;2022-10-17T15:37:39;23.00;96.10
14884;DHT22;7534;50.762;7.000;2022-10-17T15:40:13;22.90;96.40
14884;DHT22;7534;50.762;7.000;2022-10-17T15:42:42;22.80;96.40
14884;DHT22;7534;50.762;7.000;2022-10-17T15:45:10;22.80;96.70
14884;DHT22;7534;50.762;7.000;2022-10-17T15:47:37;22.80;96.90
14884;DHT22;7534;50.762;7.000;2022-10-17T15:50:05;22.70;97.30
14884;DHT22;7534;50.762;7.000;2022-10-17T15:52:33;22.60;97.50
14884;DHT22;7534;50.762;7.000;2022-10-17T15:54:59;22.50;97.90
14884;DHT22;7534;50.762;7.000;2022-10-17T15:57:27;22.40;98.00
14884;DHT22;7534;50.762;7.000;2022-10-17T15:59:56;22.30;98.00
14884;DHT22;7534;50.762;7.000;2022-10-17T16:02:24;22.20;98.10
14884;DHT22;7534;50.762;7.000;2022-10-17T16:04:50;22.20;98.40
14884;DHT22;7534;50.762;7.000;2022-10-17T16:07:17;22.10;98.50
14884;DHT22;7534;50.762;7.000;2022-10-17T16:09:44;22.10;98.50
14884;DHT22;7534;50.762;7.000;2022-10-17T16:12:16;22.00;98.50
14884;DHT22;7534;50.762;7.000;2022-10-17T16:14:46;22.00;98.90
14884;DHT22;7534;50.762;7.000;2022-10-17T16:17:15;21.90;99.10
14884;DHT22;7534;50.762;7.000;2022-10-17T16:19:42;21.90;99.40
14884;DHT22;7534;50.762;7.000;2022-10-17T16:22:20;21.80;99.60
14884;DHT22;7534;50.762;7.000;2022-10-17T16:24:56;21.70;99.70
14884;DHT22;7534;50.762;7.000;2022-10-17T16:27:24;21.70;99.90
14884;DHT22;7534;50.762;7.000;2022-10-17T16:29:50;21.60;99.90
14884;DHT22;7534;50.762;7.000;2022-10-17T16:32:16;21.50;99.90
14884;DHT22;7534;50.762;7.000;2022-10-17T16:34:41;21.50;99.90
14884;DHT22;7534;50.762;7.000;2022-10-17T16:37:07;21.40;99.90
14884;DHT22;7534;50.762;7.000;2022-10-17T16:39:33;21.30;99.90
14884;DHT22;7534;50.762;7.000;2022-10-17T16:41:58;21.30;99.90
14884;DHT22;7534;50.762;7.000;2022-10-17T16:44:24;21.20;99.90
14884;DHT22;7534;50.762;7.000;2022-10-17T16:46:50;21.20;99.90
14884;DHT22;7534;50.762;7.000;2022-10-17T16:49:15;21.20;99.90
14884;DHT22;7534;50.762;7.000;2022-10-17T16:51:42;21.00;99.90
14884;DHT22;7534;50.762;7.000;2022-10-17T16:54:08;21.00;99.90
14884;DHT22;7534;50.762;7.000;2022-10-17T16:56:34;21.00;99.90
14884;DHT22;7534;50.762;7.000;2022-10-17T16:59:00;21.00;99.90
14884;DHT22;7534;50.762;7.000;2022-10-17T17:01:26;21.00;99.90
14884;DHT22;7534;50.762;7.000;2022-10-17T17:03:56;20.90;99.90
14884;DHT22;7534;50.762;7.000;2022-10-17T17:06:25;20.80;99.90
14884;DHT22;7534;50.762;7.000;2022-10-17T17:08:53;20.80;99.90
14884;DHT22;7534;50.762;7.000;2022-10-17T17:11:20;20.70;99.90
14884;DHT22;7534;50.762;7.000;2022-10-17T17:13:47;20.60;99.90
14884;DHT22;7534;50.762;7.000;2022-10-17T17:16:21;20.40;99.90
14884;DHT22;7534;50.762;7.000;2022-10-17T17:18:53;20.40;99.90
14884;DHT22;7534;50.762;7.000;2022-10-17T17:21:21;20.50;99.90
14884;DHT22;7534;50.762;7.000;2022-10-17T17:23:47;20.50;99.90
14884;DHT22;7534;50.762;7.000;2022-10-17T17:26:18;20.40;99.90
14884;DHT22;7534;50.762;7.000;2022-10-17T17:28:46;20.40;99.90
14884;DHT22;7534;50.762;7.000;2022-10-17T17:31:15;20.30;99.90
14884;DHT22;7534;50.762;7.000;2022-10-17T17:33:44;20.20;99.90
14884;DHT22;7534;50.762;7.000;2022-10-17T17:36:48;20.20;99.90
14884;DHT22;7534;50.762;7.000;2022-10-17T17:39:10;20.10;99.90
14884;DHT22;7534;50.762;7.000;2022-10-17T17:41:37;20.10;99.90
14884;DHT22;7534;50.762;7.000;2022-10-17T17:44:04;20.00;99.90
14884;DHT22;7534;50.762;7.000;2022-10-17T17:46:30;19.90;99.90
14884;DHT22;7534;50.762;7.000;2022-10-17T17:48:57;19.80;99.90
14884;DHT22;7534;50.762;7.000;2022-10-17T17:51:25;19.90;99.90
14884;DHT22;7534;50.762;7.000;2022-10-17T17:53:52;19.80;99.90